sensor_id;sensor_type;location;lat;lon;timestamp;temperature;humidity
10263;DHT22;5177;50.068;8.156;2022-12-07T00:02:01;4.40;99.90
10263;DHT22;5177;50.068;8.156;2022-12-07T00:04:26;4.30;99.90
10263;DHT22;5177;50.068;8.156;2022-12-07T00:06:52;4.30;99.90
10263;DHT22;5177;50.068;8.156;2022-12-07T00:09:18;4.30;99.90
10263;DHT22;5177;50.068;8.156;2022-12-07T00:11:44;4.30;99.90
10263;DHT22;5177;50.068;8.156;2022-12-07T00:14:13;4.30;99.90
10263;DHT22;5177;50.068;8.156;2022-12-07T00:16:39;4.30;99.90
10263;DHT22;5177;50.068;8.156;2022-12-07T00:19:04;4.30;99.90
10263;DHT22;5177;50.068;8.156;2022-12-07T00:21:31;4.30;99.90
10263;DHT22;5177;50.068;8.156;2022-12-07T00:23:57;4.30;99.90
10263;DHT22;5177;50.068;8.156;2022-12-07T00:26:33;4.40;99.90
10263;DHT22;5177;50.068;8.156;2022-12-07T00:28:59;4.40;99.90
10263;DHT22;5177;50.068;8.156;2022-12-07T00:31:26;4.30;99.90
10263;DHT22;5177;50.068;8.156;2022-12-07T00:33:52;4.30;99.90
10263;DHT22;5177;50.068;8.156;2022-12-07T00:36:19;4.30;99.90
10263;DHT22;5177;50.068;8.156;2022-12-07T00:38:45;4.30;99.90
10263;DHT22;5177;50.068;8.156;2022-12-07T00:41:14;4.30;99.90
10263;DHT22;5177;50.068;8.156;2022-12-07T00:43:41;4.30;99.90
10263;DHT22;5177;50.068;8.156;2022-12-07T00:46:07;4.40;99.90
10263;DHT22;5177;50.068;8.156;2022-12-07T00:48:32;4.40;99.90
10263;DHT22;5177;50.068;8.156;2022-12-07T00:50:58;4.30;99.90
10263;DHT22;5177;50.068;8.156;2022-12-07T00:53:25;4.30;99.90
10263;DHT22;5177;50.068;8.156;2022-12-07T00:55:50;4.30;99.90
10263;DHT22;5177;50.068;8.156;2022-12-07T00:58:17;4.30;99.90
10263;DHT22;5177;50.068;8.156;2022-12-07T01:00:43;4.30;99.90
10263;DHT22;5177;50.068;8.156;2022-12-07T01:03:09;4.30;99.90
10263;DHT22;5177;50.068;8.156;2022-12-07T01:05:35;4.20;99.90
10263;DHT22;5177;50.068;8.156;2022-12-07T01:08:01;4.30;99.90
10263;DHT22;5177;50.068;8.156;2022-12-07T01:10:27;4.30;99.90
10263;DHT22;5177;50.068;8.156;2022-12-07T01:12:52;4.30;99.90
10263;DHT22;5177;50.068;8.156;2022-12-07T01:15:18;4.30;99.90
10263;DHT22;5177;50.068;8.156;2022-12-07T01:17:43;4.30;99.90
10263;DHT22;5177;50.068;8.156;2022-12-07T01:20:09;4.30;99.90
10263;DHT22;5177;50.068;8.156;2022-12-07T01:22:38;4.30;99.90
10263;DHT22;5177;50.068;8.156;2022-12-07T01:25:04;4.30;99.90
10263;DHT22;5177;50.068;8.156;2022-12-07T01:27:30;4.30;99.90
10263;DHT22;5177;50.068;8.156;2022-12-07T01:29:55;4.30;99.90
10263;DHT22;5177;50.068;8.156;2022-12-07T01:32:21;4.30;99.90
10263;DHT22;5177;50.068;8.156;2022-12-07T01:34:47;4.30;99.90
10263;DHT22;5177;50.068;8.156;2022-12-07T01:37:13;4.30;99.90
10263;DHT22;5177;50.068;8.156;2022-12-07T01:39:38;4.20;99.90
10263;DHT22;5177;50.068;8.156;2022-12-07T01:42:04;4.20;99.90
10263;DHT22;5177;50.068;8.156;2022-12-07T01:44:29;4.20;99.90
10263;DHT22;5177;50.068;8.156;2022-12-07T01:46:57;4.30;99.90
10263;DHT22;5177;50.068;8.156;2022-12-07T01:51:52;4.30;99.90
10263;DHT22;5177;50.068;8.156;2022-12-07T01:54:18;4.30;99.90
10263;DHT22;5177;50.068;8.156;2022-12-07T01:56:49;4.30;99.90
10263;DHT22;5177;50.068;8.156;2022-12-07T01:59:16;4.30;99.90
10263;DHT22;5177;50.068;8.156;2022-12-07T02:01:43;4.40;99.90
10263;DHT22;5177;50.068;8.156;2022-12-07T02:04:09;4.40;99.90
10263;DHT22;5177;50.068;8.156;2022-12-07T02:06:35;4.40;99.90
10263;DHT22;5177;50.068;8.156;2022-12-07T02:09:02;4.40;99.90
10263;DHT22;5177;50.068;8.156;2022-12-07T02:11:27;4.40;99.90
10263;DHT22;5177;50.068;8.156;2022-12-07T02:13:53;4.50;99.90
10263;DHT22;5177;50.068;8.156;2022-12-07T02:24:15;4.40;99.90
10263;DHT22;5177;50.068;8.156;2022-12-07T02:29:12;4.40;99.90
10263;DHT22;5177;50.068;8.156;2022-12-07T02:31:42;4.40;99.90
10263;DHT22;5177;50.068;8.156;2022-12-07T02:34:28;4.40;99.90
10263;DHT22;5177;50.068;8.156;2022-12-07T02:36:57;4.40;99.90
10263;DHT22;5177;50.068;8.156;2022-12-07T02:41:51;4.50;99.90
10263;DHT22;5177;50.068;8.156;2022-12-07T02:44:20;4.50;99.90
10263;DHT22;5177;50.068;8.156;2022-12-07T02:46:55;4.40;99.90
10263;DHT22;5177;50.068;8.156;2022-12-07T02:49:23;4.50;99.90
10263;DHT22;5177;50.068;8.156;2022-12-07T02:51:49;4.50;99.90
10263;DHT22;5177;50.068;8.156;2022-12-07T02:54:18;4.50;99.90
10263;DHT22;5177;50.068;8.156;2022-12-07T03:01:57;4.50;99.90
10263;DHT22;5177;50.068;8.156;2022-12-07T03:06:57;4.50;99.90
10263;DHT22;5177;50.068;8.156;2022-12-07T03:09:27;4.50;99.90
10263;DHT22;5177;50.068;8.156;2022-12-07T03:12:14;4.50;99.90
10263;DHT22;5177;50.068;8.156;2022-12-07T03:14:45;4.50;99.90
10263;DHT22;5177;50.068;8.156;2022-12-07T03:17:13;4.50;99.90
10263;DHT22;5177;50.068;8.156;2022-12-07T03:19:40;4.50;99.90
10263;DHT22;5177;50.068;8.156;2022-12-07T03:22:08;4.50;99.90
10263;DHT22;5177;50.068;8.156;2022-12-07T03:24:47;4.50;99.90
10263;DHT22;5177;50.068;8.156;2022-12-07T03:29:59;4.50;99.90
10263;DHT22;5177;50.068;8.156;2022-12-07T03:32:27;4.50;99.90
10263;DHT22;5177;50.068;8.156;2022-12-07T03:35:06;4.40;99.90
10263;DHT22;5177;50.068;8.156;2022-12-07T03:37:33;4.50;99.90
10263;DHT22;5177;50.068;8.156;2022-12-07T03:40:14;4.50;99.90
10263;DHT22;5177;50.068;8.156;2022-12-07T03:42:40;4.60;99.90
10263;DHT22;5177;50.068;8.156;2022-12-07T03:45:06;4.60;99.90
10263;DHT22;5177;50.068;8.156;2022-12-07T03:47:49;4.60;99.90
10263;DHT22;5177;50.068;8.156;2022-12-07T03:52:56;4.70;99.90
10263;DHT22;5177;50.068;8.156;2022-12-07T03:55:30;4.70;99.90
10263;DHT22;5177;50.068;8.156;2022-12-07T03:58:01;4.70;99.90
10263;DHT22;5177;50.068;8.156;2022-12-07T04:00:29;4.60;99.90
10263;DHT22;5177;50.068;8.156;2022-12-07T04:02:55;4.60;99.90
10263;DHT22;5177;50.068;8.156;2022-12-07T04:05:20;4.60;99.90
10263;DHT22;5177;50.068;8.156;2022-12-07T04:07:46;4.70;99.90
10263;DHT22;5177;50.068;8.156;2022-12-07T04:10:11;4.70;99.90
10263;DHT22;5177;50.068;8.156;2022-12-07T04:12:37;4.70;99.90
10263;DHT22;5177;50.068;8.156;2022-12-07T04:15:03;4.70;99.90
10263;DHT22;5177;50.068;8.156;2022-12-07T04:17:28;4.70;99.90
10263;DHT22;5177;50.068;8.156;2022-12-07T04:19:54;4.70;99.90
10263;DHT22;5177;50.068;8.156;2022-12-07T04:22:19;4.80;99.90
10263;DHT22;5177;50.068;8.156;2022-12-07T04:24:45;4.80;99.90
10263;DHT22;5177;50.068;8.156;2022-12-07T04:27:10;4.80;99.90
10263;DHT22;5177;50.068;8.156;2022-12-07T04:29:36;4.80;99.90
10263;DHT22;5177;50.068;8.156;2022-12-07T04:32:01;4.80;99.90
10263;DHT22;5177;50.068;8.156;2022-12-07T04:34:27;4.90;99.90
10263;DHT22;5177;50.068;8.156;2022-12-07T04:36:52;4.90;99.90
10263;DHT22;5177;50.068;8.156;2022-12-07T04:39:23;5.00;99.90
10263;DHT22;5177;50.068;8.156;2022-12-07T04:41:49;5.00;99.90
10263;DHT22;5177;50.068;8.156;2022-12-07T04:44:14;5.00;99.90
10263;DHT22;5177;50.068;8.156;2022-12-07T04:46:40;5.00;99.90
10263;DHT22;5177;50.068;8.156;2022-12-07T04:49:06;4.90;99.90
10263;DHT22;5177;50.068;8.156;2022-12-07T04:51:32;4.90;99.90
10263;DHT22;5177;50.068;8.156;2022-12-07T04:53:57;4.90;99.90
10263;DHT22;5177;50.068;8.156;2022-12-07T04:56:23;4.90;99.90
10263;DHT22;5177;50.068;8.156;2022-12-07T04:58:49;5.00;99.90
10263;DHT22;5177;50.068;8.156;2022-12-07T05:01:15;5.00;99.90
10263;DHT22;5177;50.068;8.156;2022-12-07T05:03:41;5.00;99.90
10263;DHT22;5177;50.068;8.156;2022-12-07T05:06:07;5.00;99.90
10263;DHT22;5177;50.068;8.156;2022-12-07T05:08:33;5.00;99.90
10263;DHT22;5177;50.068;8.156;2022-12-07T05:10:59;5.00;99.90
10263;DHT22;5177;50.068;8.156;2022-12-07T05:13:25;5.00;99.90
10263;DHT22;5177;50.068;8.156;2022-12-07T05:15:50;5.00;99.90
10263;DHT22;5177;50.068;8.156;2022-12-07T05:18:15;5.00;99.90
10263;DHT22;5177;50.068;8.156;2022-12-07T05:20:41;5.00;99.90
10263;DHT22;5177;50.068;8.156;2022-12-07T05:23:07;5.00;99.90
10263;DHT22;5177;50.068;8.156;2022-12-07T05:25:32;5.00;99.90
10263;DHT22;5177;50.068;8.156;2022-12-07T05:27:58;5.00;99.90
10263;DHT22;5177;50.068;8.156;2022-12-07T05:30:24;5.00;99.90
10263;DHT22;5177;50.068;8.156;2022-12-07T05:32:50;5.00;99.90
10263;DHT22;5177;50.068;8.156;2022-12-07T05:35:15;5.00;99.90
10263;DHT22;5177;50.068;8.156;2022-12-07T05:37:41;5.00;99.90
10263;DHT22;5177;50.068;8.156;2022-12-07T05:40:07;5.10;99.90
10263;DHT22;5177;50.068;8.156;2022-12-07T05:42:32;5.10;99.90
10263;DHT22;5177;50.068;8.156;2022-12-07T05:44:58;5.00;99.90
10263;DHT22;5177;50.068;8.156;2022-12-07T05:47:23;5.00;99.90
10263;DHT22;5177;50.068;8.156;2022-12-07T05:49:49;5.10;99.90
10263;DHT22;5177;50.068;8.156;2022-12-07T05:52:14;5.10;99.90
10263;DHT22;5177;50.068;8.156;2022-12-07T05:54:40;5.10;99.90
10263;DHT22;5177;50.068;8.156;2022-12-07T05:57:05;5.20;99.90
10263;DHT22;5177;50.068;8.156;2022-12-07T05:59:31;5.20;99.90
10263;DHT22;5177;50.068;8.156;2022-12-07T06:02:00;5.20;99.90
10263;DHT22;5177;50.068;8.156;2022-12-07T06:04:27;5.20;99.90
10263;DHT22;5177;50.068;8.156;2022-12-07T06:06:53;5.30;99.90
10263;DHT22;5177;50.068;8.156;2022-12-07T06:09:19;5.30;99.90
10263;DHT22;5177;50.068;8.156;2022-12-07T06:11:45;5.30;99.90
10263;DHT22;5177;50.068;8.156;2022-12-07T06:14:29;5.30;99.90
10263;DHT22;5177;50.068;8.156;2022-12-07T06:16:54;5.30;99.90
10263;DHT22;5177;50.068;8.156;2022-12-07T06:19:20;5.30;99.90
10263;DHT22;5177;50.068;8.156;2022-12-07T06:21:46;5.30;99.90
10263;DHT22;5177;50.068;8.156;2022-12-07T06:24:11;5.30;99.90
10263;DHT22;5177;50.068;8.156;2022-12-07T06:26:37;5.40;99.90
10263;DHT22;5177;50.068;8.156;2022-12-07T06:29:03;5.40;99.90
10263;DHT22;5177;50.068;8.156;2022-12-07T06:31:28;5.40;99.90
10263;DHT22;5177;50.068;8.156;2022-12-07T06:33:58;5.40;99.90
10263;DHT22;5177;50.068;8.156;2022-12-07T06:36:23;5.40;99.90
10263;DHT22;5177;50.068;8.156;2022-12-07T06:38:49;5.40;99.90
10263;DHT22;5177;50.068;8.156;2022-12-07T06:41:14;5.40;99.90
10263;DHT22;5177;50.068;8.156;2022-12-07T06:43:40;5.30;99.90
10263;DHT22;5177;50.068;8.156;2022-12-07T06:46:06;5.30;99.90
10263;DHT22;5177;50.068;8.156;2022-12-07T06:48:31;5.30;99.90
10263;DHT22;5177;50.068;8.156;2022-12-07T06:50:57;5.20;99.90
10263;DHT22;5177;50.068;8.156;2022-12-07T06:53:22;5.20;99.90
10263;DHT22;5177;50.068;8.156;2022-12-07T06:55:48;5.10;99.90
10263;DHT22;5177;50.068;8.156;2022-12-07T06:58:13;5.10;99.90
10263;DHT22;5177;50.068;8.156;2022-12-07T07:00:39;5.10;99.90
10263;DHT22;5177;50.068;8.156;2022-12-07T07:03:04;5.10;99.90
10263;DHT22;5177;50.068;8.156;2022-12-07T07:05:30;5.00;99.90
10263;DHT22;5177;50.068;8.156;2022-12-07T07:07:55;5.00;99.90
10263;DHT22;5177;50.068;8.156;2022-12-07T07:10:21;5.00;99.90
10263;DHT22;5177;50.068;8.156;2022-12-07T07:12:46;5.00;99.90
10263;DHT22;5177;50.068;8.156;2022-12-07T07:15:11;5.00;99.90
10263;DHT22;5177;50.068;8.156;2022-12-07T07:17:37;5.10;99.90
10263;DHT22;5177;50.068;8.156;2022-12-07T07:20:03;5.10;99.90
10263;DHT22;5177;50.068;8.156;2022-12-07T07:22:29;5.10;99.90
10263;DHT22;5177;50.068;8.156;2022-12-07T07:24:54;5.10;99.90
10263;DHT22;5177;50.068;8.156;2022-12-07T07:27:20;5.10;99.90
10263;DHT22;5177;50.068;8.156;2022-12-07T07:29:45;5.10;99.90
10263;DHT22;5177;50.068;8.156;2022-12-07T07:32:11;5.20;99.90
10263;DHT22;5177;50.068;8.156;2022-12-07T07:34:37;5.20;99.90
10263;DHT22;5177;50.068;8.156;2022-12-07T07:37:02;5.20;99.90
10263;DHT22;5177;50.068;8.156;2022-12-07T07:39:28;5.30;99.90
10263;DHT22;5177;50.068;8.156;2022-12-07T07:41:53;5.30;99.90
10263;DHT22;5177;50.068;8.156;2022-12-07T07:44:19;5.30;99.90
10263;DHT22;5177;50.068;8.156;2022-12-07T07:46:44;5.30;99.90
10263;DHT22;5177;50.068;8.156;2022-12-07T07:49:10;5.30;99.90
10263;DHT22;5177;50.068;8.156;2022-12-07T07:51:36;5.30;99.90
10263;DHT22;5177;50.068;8.156;2022-12-07T07:54:01;5.30;99.90
10263;DHT22;5177;50.068;8.156;2022-12-07T07:56:27;5.30;99.90
10263;DHT22;5177;50.068;8.156;2022-12-07T07:58:53;5.30;99.90
10263;DHT22;5177;50.068;8.156;2022-12-07T08:01:18;5.30;99.90
10263;DHT22;5177;50.068;8.156;2022-12-07T08:03:45;5.30;99.90
10263;DHT22;5177;50.068;8.156;2022-12-07T08:06:11;5.30;99.90
10263;DHT22;5177;50.068;8.156;2022-12-07T08:08:36;5.20;99.90
10263;DHT22;5177;50.068;8.156;2022-12-07T08:11:05;5.20;99.90
10263;DHT22;5177;50.068;8.156;2022-12-07T08:13:30;5.20;99.90
10263;DHT22;5177;50.068;8.156;2022-12-07T08:15:56;5.20;99.90
10263;DHT22;5177;50.068;8.156;2022-12-07T08:18:21;5.20;99.90
10263;DHT22;5177;50.068;8.156;2022-12-07T08:20:47;5.20;99.90
10263;DHT22;5177;50.068;8.156;2022-12-07T08:23:12;5.20;99.90
10263;DHT22;5177;50.068;8.156;2022-12-07T08:25:38;5.20;99.90
10263;DHT22;5177;50.068;8.156;2022-12-07T08:28:03;5.20;99.90
10263;DHT22;5177;50.068;8.156;2022-12-07T08:30:29;5.30;99.90
10263;DHT22;5177;50.068;8.156;2022-12-07T08:32:55;5.30;99.90
10263;DHT22;5177;50.068;8.156;2022-12-07T08:35:21;5.40;99.90
10263;DHT22;5177;50.068;8.156;2022-12-07T08:37:47;5.40;99.90
10263;DHT22;5177;50.068;8.156;2022-12-07T08:40:12;5.50;99.90
10263;DHT22;5177;50.068;8.156;2022-12-07T08:42:47;5.40;99.90
10263;DHT22;5177;50.068;8.156;2022-12-07T08:45:13;5.50;99.90
10263;DHT22;5177;50.068;8.156;2022-12-07T08:47:48;5.70;99.90
10263;DHT22;5177;50.068;8.156;2022-12-07T08:50:14;6.00;99.90
10263;DHT22;5177;50.068;8.156;2022-12-07T08:52:40;6.40;99.90
10263;DHT22;5177;50.068;8.156;2022-12-07T08:55:06;6.70;99.90
10263;DHT22;5177;50.068;8.156;2022-12-07T08:57:32;6.80;99.90
10263;DHT22;5177;50.068;8.156;2022-12-07T08:59:59;7.10;99.90
10263;DHT22;5177;50.068;8.156;2022-12-07T09:02:25;7.10;99.90
10263;DHT22;5177;50.068;8.156;2022-12-07T09:04:50;7.10;99.90
10263;DHT22;5177;50.068;8.156;2022-12-07T09:07:16;7.00;99.90
10263;DHT22;5177;50.068;8.156;2022-12-07T09:09:41;6.90;99.90
10263;DHT22;5177;50.068;8.156;2022-12-07T09:12:07;6.80;99.90
10263;DHT22;5177;50.068;8.156;2022-12-07T09:14:33;6.70;99.90
10263;DHT22;5177;50.068;8.156;2022-12-07T09:17:11;6.60;99.90
10263;DHT22;5177;50.068;8.156;2022-12-07T09:19:37;6.60;99.90
10263;DHT22;5177;50.068;8.156;2022-12-07T09:22:02;6.80;99.90
10263;DHT22;5177;50.068;8.156;2022-12-07T09:24:30;7.10;99.90
10263;DHT22;5177;50.068;8.156;2022-12-07T09:26:55;7.40;99.90
10263;DHT22;5177;50.068;8.156;2022-12-07T09:29:21;7.70;99.90
10263;DHT22;5177;50.068;8.156;2022-12-07T09:31:46;7.90;99.90
10263;DHT22;5177;50.068;8.156;2022-12-07T09:34:12;7.90;99.90
10263;DHT22;5177;50.068;8.156;2022-12-07T09:36:37;7.90;99.90
10263;DHT22;5177;50.068;8.156;2022-12-07T09:39:03;8.00;99.90
10263;DHT22;5177;50.068;8.156;2022-12-07T09:41:30;8.10;99.90
10263;DHT22;5177;50.068;8.156;2022-12-07T09:44:18;8.30;99.90
10263;DHT22;5177;50.068;8.156;2022-12-07T09:46:42;8.40;99.90
10263;DHT22;5177;50.068;8.156;2022-12-07T09:49:12;8.30;99.90
10263;DHT22;5177;50.068;8.156;2022-12-07T09:51:39;8.30;99.90
10263;DHT22;5177;50.068;8.156;2022-12-07T09:54:04;8.50;99.90
10263;DHT22;5177;50.068;8.156;2022-12-07T09:56:30;8.70;99.90
10263;DHT22;5177;50.068;8.156;2022-12-07T09:58:58;8.80;99.90
10263;DHT22;5177;50.068;8.156;2022-12-07T10:01:27;8.80;99.90
10263;DHT22;5177;50.068;8.156;2022-12-07T10:04:09;8.50;99.90
10263;DHT22;5177;50.068;8.156;2022-12-07T10:06:35;8.20;99.90
10263;DHT22;5177;50.068;8.156;2022-12-07T10:09:01;8.10;99.90
10263;DHT22;5177;50.068;8.156;2022-12-07T10:11:27;8.00;99.90
10263;DHT22;5177;50.068;8.156;2022-12-07T10:13:53;8.10;99.90
10263;DHT22;5177;50.068;8.156;2022-12-07T10:18:53;8.20;99.90
10263;DHT22;5177;50.068;8.156;2022-12-07T10:21:23;8.30;99.90
10263;DHT22;5177;50.068;8.156;2022-12-07T10:24:08;8.40;99.90
10263;DHT22;5177;50.068;8.156;2022-12-07T10:26:41;8.40;99.90
10263;DHT22;5177;50.068;8.156;2022-12-07T10:29:14;8.60;99.90
10263;DHT22;5177;50.068;8.156;2022-12-07T10:31:40;8.80;99.90
10263;DHT22;5177;50.068;8.156;2022-12-07T10:34:14;8.80;99.90
10263;DHT22;5177;50.068;8.156;2022-12-07T10:36:45;8.70;99.90
10263;DHT22;5177;50.068;8.156;2022-12-07T10:39:14;8.70;99.90
10263;DHT22;5177;50.068;8.156;2022-12-07T10:41:56;8.80;99.90
10263;DHT22;5177;50.068;8.156;2022-12-07T10:44:23;8.70;99.90
10263;DHT22;5177;50.068;8.156;2022-12-07T10:47:01;8.80;99.90
10263;DHT22;5177;50.068;8.156;2022-12-07T10:52:01;9.10;99.90
10263;DHT22;5177;50.068;8.156;2022-12-07T10:54:41;9.20;99.90
10263;DHT22;5177;50.068;8.156;2022-12-07T10:59:52;9.10;99.90
10263;DHT22;5177;50.068;8.156;2022-12-07T11:02:39;9.00;99.90
10263;DHT22;5177;50.068;8.156;2022-12-07T11:05:25;8.90;99.90
10263;DHT22;5177;50.068;8.156;2022-12-07T11:07:59;8.80;99.90
10263;DHT22;5177;50.068;8.156;2022-12-07T11:10:29;8.50;99.90
10263;DHT22;5177;50.068;8.156;2022-12-07T11:13:08;8.30;99.90
10263;DHT22;5177;50.068;8.156;2022-12-07T11:18:16;8.00;99.90
10263;DHT22;5177;50.068;8.156;2022-12-07T11:20:52;7.90;99.90
10263;DHT22;5177;50.068;8.156;2022-12-07T11:24:04;7.90;99.90
10263;DHT22;5177;50.068;8.156;2022-12-07T11:26:18;8.00;99.90
10263;DHT22;5177;50.068;8.156;2022-12-07T11:33:59;8.40;99.90
10263;DHT22;5177;50.068;8.156;2022-12-07T11:41:52;8.50;99.90
10263;DHT22;5177;50.068;8.156;2022-12-07T11:47:08;8.50;99.90
10263;DHT22;5177;50.068;8.156;2022-12-07T11:52:02;8.10;99.90
10263;DHT22;5177;50.068;8.156;2022-12-07T11:54:30;8.10;99.90
10263;DHT22;5177;50.068;8.156;2022-12-07T11:56:59;7.90;99.90
10263;DHT22;5177;50.068;8.156;2022-12-07T11:59:33;7.90;99.90
10263;DHT22;5177;50.068;8.156;2022-12-07T12:02:14;7.90;99.90
10263;DHT22;5177;50.068;8.156;2022-12-07T12:07:13;7.80;99.90
10263;DHT22;5177;50.068;8.156;2022-12-07T12:09:51;7.70;1.00
10263;DHT22;5177;50.068;8.156;2022-12-07T12:12:23;7.50;1.00
10263;DHT22;5177;50.068;8.156;2022-12-07T12:25:27;7.60;99.90
10263;DHT22;5177;50.068;8.156;2022-12-07T12:27:54;7.80;99.90
10263;DHT22;5177;50.068;8.156;2022-12-07T12:30:25;8.10;99.90
10263;DHT22;5177;50.068;8.156;2022-12-07T12:32:51;8.10;99.90
10263;DHT22;5177;50.068;8.156;2022-12-07T12:35:28;8.10;99.90
10263;DHT22;5177;50.068;8.156;2022-12-07T12:37:54;8.20;99.90
10263;DHT22;5177;50.068;8.156;2022-12-07T12:42:49;8.30;99.90
10263;DHT22;5177;50.068;8.156;2022-12-07T12:45:20;8.40;99.90
10263;DHT22;5177;50.068;8.156;2022-12-07T12:47:52;8.40;99.90
10263;DHT22;5177;50.068;8.156;2022-12-07T12:55:14;7.90;99.90
10263;DHT22;5177;50.068;8.156;2022-12-07T12:57:44;7.90;99.90
10263;DHT22;5177;50.068;8.156;2022-12-07T13:00:16;7.90;99.90
10263;DHT22;5177;50.068;8.156;2022-12-07T13:02:47;8.00;99.90
10263;DHT22;5177;50.068;8.156;2022-12-07T13:10:24;8.40;99.90
10263;DHT22;5177;50.068;8.156;2022-12-07T13:13:00;8.50;99.90
10263;DHT22;5177;50.068;8.156;2022-12-07T13:15:43;8.60;99.90
10263;DHT22;5177;50.068;8.156;2022-12-07T13:31:42;8.70;99.90
10263;DHT22;5177;50.068;8.156;2022-12-07T13:34:28;8.80;99.90
10263;DHT22;5177;50.068;8.156;2022-12-07T13:36:54;8.80;99.90
10263;DHT22;5177;50.068;8.156;2022-12-07T13:39:21;8.80;99.90
10263;DHT22;5177;50.068;8.156;2022-12-07T13:42:06;8.80;99.90
10263;DHT22;5177;50.068;8.156;2022-12-07T13:44:33;8.70;99.90
10263;DHT22;5177;50.068;8.156;2022-12-07T13:49:31;8.50;99.90
10263;DHT22;5177;50.068;8.156;2022-12-07T13:57:30;8.00;99.90
10263;DHT22;5177;50.068;8.156;2022-12-07T13:59:57;7.90;99.90
10263;DHT22;5177;50.068;8.156;2022-12-07T14:02:27;7.90;99.90
10263;DHT22;5177;50.068;8.156;2022-12-07T14:05:05;7.80;99.90
10263;DHT22;5177;50.068;8.156;2022-12-07T14:07:31;7.90;99.90
10263;DHT22;5177;50.068;8.156;2022-12-07T14:09:59;7.90;99.90
10263;DHT22;5177;50.068;8.156;2022-12-07T14:12:26;7.90;99.90
10263;DHT22;5177;50.068;8.156;2022-12-07T14:14:52;7.90;99.90
10263;DHT22;5177;50.068;8.156;2022-12-07T14:17:21;7.80;99.90
10263;DHT22;5177;50.068;8.156;2022-12-07T14:19:52;7.70;99.90
10263;DHT22;5177;50.068;8.156;2022-12-07T14:22:28;7.70;99.90
10263;DHT22;5177;50.068;8.156;2022-12-07T14:24:58;7.70;99.90
10263;DHT22;5177;50.068;8.156;2022-12-07T14:27:24;7.60;99.90
10263;DHT22;5177;50.068;8.156;2022-12-07T14:29:55;7.50;99.90
10263;DHT22;5177;50.068;8.156;2022-12-07T14:32:24;7.40;99.90
10263;DHT22;5177;50.068;8.156;2022-12-07T14:34:54;7.30;99.90
10263;DHT22;5177;50.068;8.156;2022-12-07T14:37:19;7.30;99.90
10263;DHT22;5177;50.068;8.156;2022-12-07T14:39:45;7.10;99.90
10263;DHT22;5177;50.068;8.156;2022-12-07T14:42:11;7.20;99.90
10263;DHT22;5177;50.068;8.156;2022-12-07T14:44:36;7.10;99.90
10263;DHT22;5177;50.068;8.156;2022-12-07T14:47:02;7.10;99.90
10263;DHT22;5177;50.068;8.156;2022-12-07T14:49:27;7.20;99.90
10263;DHT22;5177;50.068;8.156;2022-12-07T14:51:53;7.20;99.90
10263;DHT22;5177;50.068;8.156;2022-12-07T14:54:19;7.20;99.90
10263;DHT22;5177;50.068;8.156;2022-12-07T14:56:45;7.20;99.90
10263;DHT22;5177;50.068;8.156;2022-12-07T14:59:11;7.20;99.90
10263;DHT22;5177;50.068;8.156;2022-12-07T15:01:37;7.10;99.90
10263;DHT22;5177;50.068;8.156;2022-12-07T15:04:02;7.10;99.90
10263;DHT22;5177;50.068;8.156;2022-12-07T15:06:28;7.10;99.90
10263;DHT22;5177;50.068;8.156;2022-12-07T15:08:53;7.10;99.90
10263;DHT22;5177;50.068;8.156;2022-12-07T15:11:20;7.10;99.90
10263;DHT22;5177;50.068;8.156;2022-12-07T15:13:45;7.00;99.90
10263;DHT22;5177;50.068;8.156;2022-12-07T15:16:29;7.00;99.90
10263;DHT22;5177;50.068;8.156;2022-12-07T15:18:55;7.00;99.90
10263;DHT22;5177;50.068;8.156;2022-12-07T15:21:20;7.00;99.90
10263;DHT22;5177;50.068;8.156;2022-12-07T15:23:46;7.00;99.90
10263;DHT22;5177;50.068;8.156;2022-12-07T15:26:12;6.80;99.90
10263;DHT22;5177;50.068;8.156;2022-12-07T15:28:38;6.70;99.90
10263;DHT22;5177;50.068;8.156;2022-12-07T15:31:05;6.60;99.90
10263;DHT22;5177;50.068;8.156;2022-12-07T15:33:35;6.40;99.90
10263;DHT22;5177;50.068;8.156;2022-12-07T15:36:00;6.30;99.90
10263;DHT22;5177;50.068;8.156;2022-12-07T15:38:26;6.20;99.90
10263;DHT22;5177;50.068;8.156;2022-12-07T15:40:53;6.10;99.90
10263;DHT22;5177;50.068;8.156;2022-12-07T15:43:19;6.00;99.90
10263;DHT22;5177;50.068;8.156;2022-12-07T15:46:03;5.90;99.90
10263;DHT22;5177;50.068;8.156;2022-12-07T15:48:28;5.90;99.90
10263;DHT22;5177;50.068;8.156;2022-12-07T15:51:00;5.90;99.90
10263;DHT22;5177;50.068;8.156;2022-12-07T15:53:26;5.90;99.90
10263;DHT22;5177;50.068;8.156;2022-12-07T15:55:51;5.90;99.90
10263;DHT22;5177;50.068;8.156;2022-12-07T15:58:17;5.90;99.90
10263;DHT22;5177;50.068;8.156;2022-12-07T16:00:42;5.90;99.90
10263;DHT22;5177;50.068;8.156;2022-12-07T16:03:08;5.90;99.90
10263;DHT22;5177;50.068;8.156;2022-12-07T16:05:33;5.90;99.90
10263;DHT22;5177;50.068;8.156;2022-12-07T16:07:59;5.80;99.90
10263;DHT22;5177;50.068;8.156;2022-12-07T16:10:24;5.80;99.90
10263;DHT22;5177;50.068;8.156;2022-12-07T16:12:50;5.70;99.90
10263;DHT22;5177;50.068;8.156;2022-12-07T16:15:15;5.70;99.90
10263;DHT22;5177;50.068;8.156;2022-12-07T16:17:41;5.70;99.90
10263;DHT22;5177;50.068;8.156;2022-12-07T16:20:06;5.60;99.90
10263;DHT22;5177;50.068;8.156;2022-12-07T16:22:33;5.60;99.90
10263;DHT22;5177;50.068;8.156;2022-12-07T16:24:58;5.60;99.90
10263;DHT22;5177;50.068;8.156;2022-12-07T16:27:24;5.60;99.90
10263;DHT22;5177;50.068;8.156;2022-12-07T16:29:49;5.60;99.90
10263;DHT22;5177;50.068;8.156;2022-12-07T16:32:15;5.50;99.90
10263;DHT22;5177;50.068;8.156;2022-12-07T16:34:40;5.40;99.90
10263;DHT22;5177;50.068;8.156;2022-12-07T16:37:06;5.40;99.90
10263;DHT22;5177;50.068;8.156;2022-12-07T16:39:32;5.40;99.90
10263;DHT22;5177;50.068;8.156;2022-12-07T16:41:57;5.40;99.90
10263;DHT22;5177;50.068;8.156;2022-12-07T16:44:23;5.40;99.90
10263;DHT22;5177;50.068;8.156;2022-12-07T16:46:48;5.30;99.90
10263;DHT22;5177;50.068;8.156;2022-12-07T16:49:14;5.30;99.90
10263;DHT22;5177;50.068;8.156;2022-12-07T16:51:40;5.30;99.90
10263;DHT22;5177;50.068;8.156;2022-12-07T16:54:11;5.30;99.90
10263;DHT22;5177;50.068;8.156;2022-12-07T16:56:37;5.30;99.90
10263;DHT22;5177;50.068;8.156;2022-12-07T16:59:02;5.30;99.90
10263;DHT22;5177;50.068;8.156;2022-12-07T17:01:28;5.30;99.90
10263;DHT22;5177;50.068;8.156;2022-12-07T17:03:54;5.40;99.90
10263;DHT22;5177;50.068;8.156;2022-12-07T17:06:24;5.40;99.90
10263;DHT22;5177;50.068;8.156;2022-12-07T17:08:50;5.40;99.90
10263;DHT22;5177;50.068;8.156;2022-12-07T17:11:17;5.40;99.90
10263;DHT22;5177;50.068;8.156;2022-12-07T17:13:43;5.40;99.90
10263;DHT22;5177;50.068;8.156;2022-12-07T17:16:27;5.40;99.90
10263;DHT22;5177;50.068;8.156;2022-12-07T17:18:53;5.50;99.90
10263;DHT22;5177;50.068;8.156;2022-12-07T17:21:19;5.50;99.90
10263;DHT22;5177;50.068;8.156;2022-12-07T17:23:44;5.50;99.90
10263;DHT22;5177;50.068;8.156;2022-12-07T17:26:11;5.50;99.90
10263;DHT22;5177;50.068;8.156;2022-12-07T17:28:37;5.50;99.90
10263;DHT22;5177;50.068;8.156;2022-12-07T17:31:07;5.50;99.90
10263;DHT22;5177;50.068;8.156;2022-12-07T17:33:32;5.50;99.90
10263;DHT22;5177;50.068;8.156;2022-12-07T17:35:58;5.50;99.90
10263;DHT22;5177;50.068;8.156;2022-12-07T17:38:24;5.50;99.90
10263;DHT22;5177;50.068;8.156;2022-12-07T17:40:50;5.50;99.90
10263;DHT22;5177;50.068;8.156;2022-12-07T17:43:15;5.50;99.90
10263;DHT22;5177;50.068;8.156;2022-12-07T17:45:40;5.50;99.90
10263;DHT22;5177;50.068;8.156;2022-12-07T17:48:06;5.50;99.90